Terminal Aerodrome Forecast
Issued by NWS

Home | Current Version | Previous Version | Text Only | Print | Product List | Glossary On
Versions: 1 2 3 4 5 6 7 8 9 10 11 12 13 14 15 16 17 18 19 20 21 22 23 24 25 26 27 28 29 30 31 32 33 34 35
000
FTPA31 PHFO 140300 AAA
TAFITO
TAF AMD
PHTO 140350Z 1404/1424 08008KT 6SM -SHRA BKN020 OVC035
      TEMPO 1404/1406 BKN009
     FM140600 21006KT 6SM -SHRA BKN020 OVC035
     FM142000 05007KT P6SM VCSH BKN035=

USA.gov is the U.S. government's official web portal to all federal, state and local government web resources and services.